Time;durP1;ratioP1;P1;durP2;ratioP2;P2;SDS_P1;SDS_P2;PMS_P1;PMS_P2;Temp;Humidity;BMP_temperature;BMP_pressure;BME280_temperature;BME280_humidity;BME280_pressure;Samples;Min_cycle;Max_cycle;Signal;HPM_P1;HPM_P2
2022/10/10 00:00:52;;;;;;;14.30;9.13;;;;;;;5.10;100.00;101289.59;4955261;28;20031;-81
2022/10/10 00:03:18;;;;;;;19.00;9.00;;;;;;;5.08;100.00;101283.56;4956978;29;20051;-81
2022/10/10 00:05:44;;;;;;;15.63;9.27;;;;;;;5.04;100.00;101282.81;4940387;29;20085;-81
2022/10/10 00:08:10;;;;;;;19.55;9.23;;;;;;;5.02;100.00;101265.44;4956118;29;20046;-81
2022/10/10 00:10:36;;;;;;;21.05;8.50;;;;;;;5.08;100.00;101286.41;4939827;29;20405;-80
2022/10/10 00:13:01;;;;;;;15.80;8.93;;;;;;;4.99;100.00;101269.97;4955801;29;20023;-81
2022/10/10 00:15:27;;;;;;;17.75;8.07;;;;;;;4.82;100.00;101242.72;4939855;29;20031;-81
2022/10/10 00:17:53;;;;;;;13.23;7.45;;;;;;;4.99;100.00;101280.50;4955673;29;20042;-81
2022/10/10 00:20:19;;;;;;;17.60;8.85;;;;;;;4.97;100.00;101286.56;4957336;28;20024;-81
2022/10/10 00:22:45;;;;;;;14.32;8.55;;;;;;;4.94;100.00;101278.94;4939758;29;20023;-81
2022/10/10 00:25:11;;;;;;;16.55;9.45;;;;;;;4.84;100.00;101260.91;4958274;28;20137;-80
2022/10/10 00:27:37;;;;;;;17.45;9.90;;;;;;;4.85;100.00;101265.34;4942720;28;20079;-81
2022/10/10 00:30:05;;;;;;;20.23;9.70;;;;;;;4.87;100.00;101270.56;4958722;28;20034;-81
2022/10/10 00:32:30;;;;;;;15.70;9.48;;;;;;;4.77;100.00;101240.41;4942580;28;20432;-81
2022/10/10 00:34:55;;;;;;;18.65;9.68;;;;;;;4.73;100.00;101231.16;4990809;28;20018;-80
2022/10/10 00:37:21;;;;;;;18.55;10.10;;;;;;;4.89;100.00;101257.59;4942485;28;20534;-80
2022/10/10 00:39:46;;;;;;;18.55;9.77;;;;;;;4.77;100.00;101238.38;4958588;28;20022;-80
2022/10/10 00:42:13;;;;;;;21.60;11.60;;;;;;;4.71;100.00;101231.59;4958583;28;20439;-80
2022/10/10 00:44:43;;;;;;;19.45;9.93;;;;;;;4.78;100.00;101234.31;4974553;28;20033;-82
2022/10/10 00:47:08;;;;;;;19.23;10.23;;;;;;;4.77;100.00;101235.53;4942487;28;20460;-80
2022/10/10 00:49:35;;;;;;;16.95;10.50;;;;;;;4.85;100.00;101233.41;4958606;28;20038;-81
2022/10/10 00:52:01;;;;;;;18.70;9.85;;;;;;;4.58;100.00;101193.81;4974527;28;20026;-82
2022/10/10 00:54:27;;;;;;;18.77;9.10;;;;;;;4.57;100.00;101203.53;4942839;28;20022;-80
2022/10/10 00:56:59;;;;;;;16.45;9.70;;;;;;;4.58;100.00;101212.81;4942411;28;20486;-80
2022/10/10 00:59:25;;;;;;;;;;;;;;;4.64;100.00;101233.75;4958792;28;20062;-80
2022/10/10 01:01:50;;;;;;;19.13;10.18;;;;;;;4.51;100.00;101227.91;4942242;28;19964;-81
2022/10/10 01:04:35;;;;;;;18.77;9.20;;;;;;;4.53;100.00;101230.28;4974280;28;20459;-81
2022/10/10 01:07:03;;;;;;;30.08;12.32;;;;;;;4.33;100.00;101191.38;4941561;28;20070;-80
2022/10/10 01:09:30;;;;;;;20.52;9.90;;;;;;;4.48;100.00;101223.88;4957017;28;20030;-81
2022/10/10 01:12:13;;;;;;;19.63;10.70;;;;;;;4.52;100.00;101223.81;4955811;28;20475;-82
2022/10/10 01:14:55;;;;;;;16.83;11.20;;;;;;;4.45;100.00;101201.31;4973191;28;20031;-81
2022/10/10 01:17:54;;;;;;;18.90;10.50;;;;;;;4.51;100.00;101222.25;4973112;28;20027;-80
2022/10/10 01:20:35;;;;;;;20.58;10.88;;;;;;;4.48;100.00;101220.25;4973036;28;20491;-81
2022/10/10 01:23:06;;;;;;;19.00;10.73;;;;;;;4.48;100.00;101204.06;4955836;28;20027;-82
2022/10/10 01:25:31;;;;;;;18.38;10.50;;;;;;;4.50;100.00;101212.16;4974462;28;20046;-80
2022/10/10 01:28:40;;;;;;;19.27;11.25;;;;;;;4.48;100.00;101200.44;4955715;28;20034;-80
2022/10/10 01:31:07;;;;;;;19.70;10.38;;;;;;;4.39;100.00;101183.22;4926900;28;20045;-81
2022/10/10 01:34:02;;;;;;;21.67;10.88;;;;;;;4.42;100.00;101179.50;4939681;28;20015;-81
2022/10/10 01:36:39;;;;;;;24.52;12.25;;;;;;;4.36;100.00;101182.06;4934505;28;20065;-82
2022/10/10 01:39:34;;;;;;;20.77;12.18;;;;;;;4.12;100.00;101154.16;4955849;28;20038;-80
2022/10/10 01:42:03;;;;;;;20.25;11.82;;;;;;;4.19;100.00;101177.47;4952450;28;20041;-81
2022/10/10 01:44:29;;;;;;;19.92;10.98;;;;;;;4.27;100.00;101197.94;4958010;28;20053;-81
2022/10/10 01:46:54;;;;;;;21.58;11.82;;;;;;;4.26;100.00;101183.03;4974966;28;20023;-81
2022/10/10 01:49:24;;;;;;;22.35;12.57;;;;;;;4.16;100.00;101163.38;4957791;28;20500;-80
2022/10/10 01:52:09;;;;;;;18.75;10.60;;;;;;;4.23;100.00;101180.22;4973943;28;20023;-81
2022/10/10 01:54:53;;;;;;;18.60;11.10;;;;;;;4.21;100.00;101172.19;4974174;28;20058;-80
2022/10/10 01:57:38;;;;;;;24.52;11.40;;;;;;;4.20;100.00;101176.25;4957480;28;20019;-80
2022/10/10 02:00:07;;;;;;;25.55;11.52;;;;;;;4.23;100.00;101169.72;4957353;28;20035;-81
2022/10/10 02:03:12;;;;;;;24.00;12.30;;;;;;;4.25;100.00;101172.13;4974906;28;20030;-80
2022/10/10 02:05:43;;;;;;;29.90;14.32;;;;;;;4.24;100.00;101173.34;4949132;28;20035;-80
2022/10/10 02:08:11;;;;;;;21.52;12.13;;;;;;;4.22;100.00;101158.81;4957597;28;20034;-80
2022/10/10 02:10:43;;;;;;;25.70;12.68;;;;;;;4.25;100.00;101160.81;4941300;28;20475;-80
2022/10/10 02:13:10;;;;;;;19.35;12.93;;;;;;;4.25;100.00;101166.47;4957487;28;20022;-80
2022/10/10 02:15:40;;;;;;;22.48;12.85;;;;;;;4.21;100.00;101157.25;4976027;28;20027;-80
2022/10/10 02:18:06;;;;;;;27.52;13.30;;;;;;;4.20;100.00;101152.81;4942866;28;20078;-81
2022/10/10 02:20:32;;;;;;;22.70;12.60;;;;;;;4.20;100.00;101142.31;4958812;28;20476;-80
2022/10/10 02:22:57;;;;;;;28.70;13.23;;;;;;;4.11;100.00;101127.91;4974579;28;20093;-80
2022/10/10 02:25:27;;;;;;;26.63;13.25;;;;;;;3.98;100.00;101113.53;4945400;28;20124;-80
2022/10/10 02:28:06;;;;;;;26.58;12.07;;;;;;;4.19;100.00;101156.84;4961225;28;20514;-79
2022/10/10 02:30:34;;;;;;;24.95;13.75;;;;;;;4.17;100.00;101148.03;4961093;28;20145;-79
2022/10/10 02:33:00;;;;;;;25.77;13.88;;;;;;;4.11;100.00;101127.09;4944723;28;20034;-79
2022/10/10 02:35:39;;;;;;;23.92;12.82;;;;;;;4.17;100.00;101137.47;4945208;28;20015;-80
2022/10/10 02:38:05;;;;;;;23.98;12.73;;;;;;;4.10;100.00;101131.16;4961422;28;20015;-80
2022/10/10 02:40:34;;;;;;;24.35;12.93;;;;;;;4.12;100.00;101125.88;4945218;28;20050;-79
2022/10/10 02:43:02;;;;;;;24.63;13.10;;;;;;;3.81;100.00;101083.50;4945101;28;20026;-80
2022/10/10 02:45:28;;;;;;;20.63;12.00;;;;;;;4.06;100.00;101131.22;4960989;28;20035;-80
2022/10/10 02:47:54;;;;;;;23.73;12.50;;;;;;;3.44;100.00;101029.97;4961453;28;20010;-80
2022/10/10 02:50:20;;;;;;;22.30;12.43;;;;;;;3.88;100.00;101103.19;4978912;28;20041;-80
2022/10/10 02:52:46;;;;;;;22.50;12.27;;;;;;;3.98;100.00;101115.56;4945713;28;20081;-81
2022/10/10 02:55:11;;;;;;;26.60;12.73;;;;;;;3.98;100.00;101109.91;4978187;28;20023;-80
2022/10/10 02:57:37;;;;;;;25.98;13.45;;;;;;;3.94;100.00;101100.69;4978493;28;20474;-80
2022/10/10 03:00:04;;;;;;;25.50;13.45;;;;;;;4.01;100.00;101111.91;4978453;28;20027;-80
2022/10/10 03:02:29;;;;;;;21.25;11.90;;;;;;;3.95;100.00;101091.00;4961293;28;20026;-80
2022/10/10 03:04:55;;;;;;;27.95;11.75;;;;;;;3.91;100.00;101084.59;4961338;28;20033;-80
2022/10/10 03:07:22;;;;;;;25.90;12.40;;;;;;;3.78;100.00;101069.41;4961410;28;20100;-81
2022/10/10 03:09:48;;;;;;;24.90;12.43;;;;;;;3.79;100.00;101085.16;4977727;28;20015;-80
2022/10/10 03:12:13;;;;;;;24.13;12.23;;;;;;;3.82;100.00;101085.09;4944931;28;20019;-80
2022/10/10 03:14:38;;;;;;;20.77;12.75;;;;;;;3.83;100.00;101097.19;4960622;28;20023;-80
2022/10/10 03:17:04;;;;;;;24.05;11.18;;;;;;;3.84;100.00;101090.31;4976155;28;20030;-80
2022/10/10 03:19:29;;;;;;;24.95;13.48;;;;;;;3.85;100.00;101087.06;4976578;28;20058;-80
2022/10/10 03:21:54;;;;;;;23.65;12.90;;;;;;;3.65;100.00;101055.09;4944652;28;20029;-81
2022/10/10 03:24:20;;;;;;;23.95;12.65;;;;;;;3.68;100.00;101073.19;4976771;28;20059;-81
2022/10/10 03:26:45;;;;;;;27.23;13.70;;;;;;;3.75;100.00;101081.59;4944544;28;20062;-80
2022/10/10 03:29:10;;;;;;;30.23;13.40;;;;;;;3.71;100.00;101073.16;4943998;28;20046;-80
2022/10/10 03:31:36;;;;;;;27.33;13.23;;;;;;;3.75;100.00;101073.09;4944552;28;20115;-80
2022/10/10 03:34:01;;;;;;;24.30;14.02;;;;;;;3.71;100.00;101064.69;4959774;28;20057;-79
2022/10/10 03:36:27;;;;;;;24.38;13.88;;;;;;;3.72;100.00;101060.63;4959801;28;20030;-79
2022/10/10 03:38:52;;;;;;;24.45;13.98;;;;;;;3.78;100.00;101075.06;4977159;28;20157;-80
2022/10/10 03:41:18;;;;;;;27.10;14.13;;;;;;;3.71;100.00;101070.34;4959762;28;20027;-80
2022/10/10 03:43:43;;;;;;;31.08;14.98;;;;;;;3.70;100.00;101063.09;4943423;28;20030;-81
2022/10/10 03:46:08;;;;;;;26.58;14.77;;;;;;;3.79;100.00;101068.19;4959542;28;20038;-81
2022/10/10 03:48:34;;;;;;;34.17;13.88;;;;;;;3.85;100.00;101080.63;4959976;28;20023;-79
2022/10/10 03:50:59;;;;;;;30.83;14.02;;;;;;;3.76;100.00;101054.94;4959529;28;20069;-79
2022/10/10 03:53:25;;;;;;;29.75;15.15;;;;;;;3.68;100.00;101050.59;4943425;28;20062;-80
2022/10/10 03:55:52;;;;;;;31.65;14.27;;;;;;;3.77;100.00;101057.34;4975467;28;20435;-79
2022/10/10 03:58:17;;;;;;;29.50;14.57;;;;;;;3.57;100.00;101022.53;4975169;28;20023;-80
2022/10/10 04:00:42;;;;;;;32.78;15.27;;;;;;;3.74;100.00;101041.22;4977073;28;20089;-81
2022/10/10 04:03:08;;;;;;;27.05;14.98;;;;;;;3.68;100.00;101005.38;4976935;28;20063;-81
2022/10/10 04:05:37;;;;;;;30.50;14.60;;;;;;;3.87;100.00;101053.53;4959925;28;20077;-81
2022/10/10 04:08:03;;;;;;;27.65;14.90;;;;;;;3.85;100.00;101049.53;4959226;28;20503;-80
2022/10/10 04:10:28;;;;;;;29.75;14.90;;;;;;;3.78;100.00;101047.59;4959160;28;20102;-80
2022/10/10 04:12:54;;;;;;;35.08;16.15;;;;;;;3.83;100.00;101043.50;4976234;28;20494;-81
2022/10/10 04:15:19;;;;;;;30.52;15.43;;;;;;;3.83;100.00;101046.31;4959025;28;20085;-81
2022/10/10 04:17:45;;;;;;;32.00;15.68;;;;;;;3.61;100.00;101004.28;4976350;28;20110;-81
2022/10/10 04:20:10;;;;;;;31.65;14.00;;;;;;;3.85;100.00;101043.88;4976120;28;20558;-80
2022/10/10 04:22:35;;;;;;;26.67;14.10;;;;;;;3.64;100.00;100991.31;4942638;28;20427;-81
2022/10/10 04:25:03;;;;;;;29.08;14.75;;;;;;;3.89;100.00;101042.63;4958833;28;20162;-81
2022/10/10 04:27:37;;;;;;;33.13;15.55;;;;;;;3.75;100.00;101014.56;4975898;28;20499;-80
2022/10/10 04:30:04;;;;;;;28.83;15.05;;;;;;;3.76;100.00;101013.34;4976283;28;20035;-80
2022/10/10 04:32:31;;;;;;;29.40;17.70;;;;;;;3.88;100.00;101032.53;4975101;28;20023;-80
2022/10/10 04:34:57;;;;;;;26.10;14.98;;;;;;;3.75;100.00;101008.09;4991206;28;20050;-79
2022/10/10 04:37:24;;;;;;;38.90;16.85;;;;;;;3.84;100.00;101022.47;4976551;28;20104;-81
2022/10/10 04:39:51;;;;;;;33.15;16.75;;;;;;;3.73;100.00;100996.41;4975652;28;20035;-81
2022/10/10 04:42:17;;;;;;;36.38;15.93;;;;;;;3.86;100.00;101031.34;4959306;28;20085;-81
2022/10/10 04:44:45;;;;;;;34.05;15.20;;;;;;;3.80;100.00;101013.25;4976736;28;20407;-80
2022/10/10 04:47:13;;;;;;;34.22;16.63;;;;;;;3.80;100.00;101025.38;4975823;28;20023;-78
2022/10/10 04:49:40;;;;;;;29.50;16.75;;;;;;;3.62;100.00;100997.38;4974830;28;20471;-78
2022/10/10 04:52:08;;;;;;;28.80;15.73;;;;;;;3.79;100.00;101020.13;4959334;28;20539;-77
2022/10/10 04:54:34;;;;;;;29.38;16.48;;;;;;;3.75;100.00;101008.91;4927095;28;20030;-79
2022/10/10 04:57:00;;;;;;;32.85;18.30;;;;;;;3.75;100.00;101023.03;4959482;28;20026;-78
2022/10/10 04:59:26;;;;;;;33.47;17.58;;;;;;;3.69;100.00;101019.09;4944878;28;20042;-81
2022/10/10 05:01:51;;;;;;;35.97;17.52;;;;;;;3.71;100.00;101011.00;4978713;28;20379;-81
2022/10/10 05:04:18;;;;;;;34.05;17.33;;;;;;;3.69;100.00;101002.13;4976408;28;20030;-81
2022/10/10 05:06:44;;;;;;;36.58;16.88;;;;;;;3.61;100.00;100998.63;4976807;28;20467;-80
2022/10/10 05:09:13;;;;;;;48.40;18.20;;;;;;;3.51;100.00;100971.34;4962795;28;20038;-79
2022/10/10 05:11:42;;;;;;;35.17;16.75;;;;;;;3.63;100.00;100989.72;4962726;28;20105;-78
2022/10/10 05:14:08;;;;;;;33.95;17.48;;;;;;;3.61;100.00;100990.16;4945706;28;20038;-82
2022/10/10 05:16:34;;;;;;;31.60;16.35;;;;;;;3.62;100.00;100999.44;4942464;28;20502;-81
2022/10/10 05:19:01;;;;;;;34.58;17.55;;;;;;;3.55;100.00;100996.72;4958049;28;20035;-79
2022/10/10 05:21:27;;;;;;;34.65;16.75;;;;;;;3.63;100.00;101010.28;4974121;28;20500;-80
2022/10/10 05:23:53;;;;;;;41.70;17.90;;;;;;;3.49;100.00;100996.41;4941190;28;20037;-83
2022/10/10 05:26:19;;;;;;;31.88;16.23;;;;;;;3.43;100.00;100983.97;4975438;28;20126;-79
2022/10/10 05:28:45;;;;;;;36.53;17.17;;;;;;;3.56;100.00;100998.31;4975142;28;20022;-80
2022/10/10 05:31:10;;;;;;;42.42;18.35;;;;;;;3.52;100.00;100994.75;4957307;28;20034;-80
2022/10/10 05:33:36;;;;;;;34.22;17.83;;;;;;;3.55;100.00;100993.88;4971852;28;20429;-81
2022/10/10 05:36:03;;;;;;;39.83;19.45;;;;;;;3.65;100.00;100999.38;4955857;28;20062;-79
2022/10/10 05:38:29;;;;;;;36.28;19.60;;;;;;;3.77;100.00;101014.13;4972000;28;20019;-80
2022/10/10 05:40:55;;;;;;;43.00;21.08;;;;;;;3.94;100.00;101007.41;4956798;28;20110;-80
2022/10/10 05:43:20;;;;;;;39.42;19.65;;;;;;;4.21;100.00;101002.47;4955747;28;20033;-80
2022/10/10 05:45:45;;;;;;;35.97;18.85;;;;;;;4.38;100.00;100992.84;4939626;28;20031;-81
2022/10/10 05:48:11;;;;;;;32.70;18.30;;;;;;;4.46;100.00;100990.69;4971741;28;20019;-80
2022/10/10 05:50:39;;;;;;;35.95;17.67;;;;;;;4.46;100.00;101002.78;4971493;28;20018;-80
2022/10/10 05:53:05;;;;;;;37.03;17.33;;;;;;;4.47;100.00;101004.38;4955140;28;20025;-79
2022/10/10 05:55:31;;;;;;;32.35;17.23;;;;;;;4.41;100.00;100988.38;4972684;28;20034;-80
2022/10/10 05:57:56;;;;;;;35.75;17.75;;;;;;;4.41;100.00;100991.97;4957538;28;20019;-80
2022/10/10 06:00:22;;;;;;;45.50;17.95;;;;;;;4.46;100.00;100985.03;4961432;28;20357;-80
2022/10/10 06:02:47;;;;;;;37.10;16.48;;;;;;;4.56;100.00;100991.72;4945394;28;20029;-81
2022/10/10 06:05:13;;;;;;;44.50;18.48;;;;;;;4.55;100.00;100981.63;4978868;28;20122;-80
2022/10/10 06:07:38;;;;;;;38.33;17.40;;;;;;;4.55;100.00;100985.25;4993527;28;20042;-80
2022/10/10 06:10:04;;;;;;;32.53;16.33;;;;;;;4.55;100.00;100976.75;4945257;28;20050;-81
2022/10/10 06:12:30;;;;;;;31.05;16.63;;;;;;;4.61;100.00;100971.41;4961336;28;20030;-80
2022/10/10 06:14:55;;;;;;;29.27;15.73;;;;;;;4.68;100.00;100974.88;4978534;28;20023;-80
2022/10/10 06:17:20;;;;;;;28.38;17.00;;;;;;;4.85;100.00;100992.72;4960995;28;20492;-79
2022/10/10 06:19:46;;;;;;;31.50;16.58;;;;;;;4.88;100.00;100981.31;4993746;28;20027;-80
2022/10/10 06:22:11;;;;;;;35.35;17.88;;;;;;;4.98;100.00;100976.66;4978482;28;20019;-78
2022/10/10 06:24:37;;;;;;;28.92;15.52;;;;;;;5.14;100.00;100993.69;4961086;28;20384;-80
2022/10/10 06:27:04;;;;;;;38.88;16.48;;;;;;;5.24;100.00;100995.50;4960806;28;20043;-80
2022/10/10 06:29:32;;;;;;;33.00;17.42;;;;;;;5.17;100.00;100947.50;4977003;28;20030;-80
2022/10/10 06:31:58;;;;;;;37.25;18.13;;;;;;;5.33;100.00;100966.56;4975242;28;20027;-82
2022/10/10 06:34:23;;;;;;;56.47;19.20;;;;;;;5.50;100.00;100985.16;4958704;28;20034;-82
2022/10/10 06:36:50;;;;;;;29.15;16.30;;;;;;;5.51;100.00;100966.13;4982105;28;20031;-81
2022/10/10 06:39:15;;;;;;;33.13;17.20;;;;;;;5.63;100.00;100976.78;4960342;28;20111;-81
2022/10/10 06:41:41;;;;;;;30.13;17.65;;;;;;;5.82;100.00;100985.19;4942059;29;20071;-81
2022/10/10 06:44:06;;;;;;;30.73;16.58;;;;;;;5.81;100.00;100963.72;4942633;29;20030;-82
2022/10/10 06:46:36;;;;;;;27.52;16.30;;;;;;;6.07;100.00;100993.06;4925438;29;20496;-81
2022/10/10 06:49:04;;;;;;;110.32;26.48;;;;;;;6.24;100.00;100990.97;4928285;29;20031;-83
2022/10/10 06:51:30;;;;;;;37.88;16.75;;;;;;;6.33;100.00;100982.66;4958484;29;20023;-78
2022/10/10 06:53:57;;;;;;;28.55;16.42;;;;;;;7.23;100.00;100981.66;4958581;29;20028;-78
2022/10/10 06:56:23;;;;;;;28.75;14.73;;;;;;;9.01;100.00;100977.09;4910797;29;20034;-79
2022/10/10 06:58:49;;;;;;;34.75;13.60;;;;;;;10.85;100.00;100973.00;4912073;29;20023;-79
2022/10/10 07:01:17;;;;;;;111.00;21.45;;;;;;;12.30;100.00;100964.28;4927857;29;20027;-78
2022/10/10 07:03:43;;;;;;;25.88;12.55;;;;;;;13.39;100.00;100969.75;4965796;29;20027;-81
2022/10/10 07:06:11;;;;;;;21.92;12.48;;;;;;;14.13;100.00;100963.88;4942760;29;20035;-78
2022/10/10 07:08:37;;;;;;;31.83;13.27;;;;;;;14.49;100.00;100976.88;4942366;28;20495;-79
2022/10/10 07:11:03;;;;;;;47.42;16.30;;;;;;;14.97;98.53;100971.47;4958970;29;20031;-78
2022/10/10 07:13:28;;;;;;;24.08;12.48;;;;;;;15.47;94.34;100969.84;4958868;29;20114;-78
2022/10/10 07:15:54;;;;;;;22.45;12.75;;;;;;;15.92;88.32;100978.84;4926954;29;20047;-78
2022/10/10 07:18:20;;;;;;;41.45;14.20;;;;;;;16.34;87.53;100975.16;4961550;29;20024;-78
2022/10/10 07:20:45;;;;;;;26.38;12.73;;;;;;;16.49;79.64;100981.53;4958393;29;20027;-79
2022/10/10 07:23:11;;;;;;;17.92;12.43;;;;;;;16.76;79.53;100972.19;4980330;28;20039;-81
2022/10/10 07:25:38;;;;;;;25.58;14.38;;;;;;;17.05;75.46;100978.81;4944976;29;20043;-81
2022/10/10 07:28:05;;;;;;;123.43;23.95;;;;;;;17.28;74.69;100978.34;4973481;28;20101;-81
2022/10/10 07:30:31;;;;;;;95.55;22.52;;;;;;;17.25;69.48;100982.28;4974526;28;20468;-76
2022/10/10 07:32:56;;;;;;;20.73;12.40;;;;;;;17.26;68.26;100989.63;4942319;29;20031;-79
2022/10/10 07:35:22;;;;;;;30.20;13.07;;;;;;;17.42;70.06;100983.09;4975060;28;20035;-81
2022/10/10 07:37:52;;;;;;;24.15;13.32;;;;;;;17.72;69.33;100983.38;4941659;29;20019;-80
2022/10/10 07:40:18;;;;;;;20.67;12.85;;;;;;;17.75;66.64;100969.97;4974645;28;20502;-80
2022/10/10 07:42:43;;;;;;;27.40;13.48;;;;;;;18.00;65.91;100966.00;4944052;29;20027;-82
2022/10/10 07:45:11;;;;;;;23.30;12.35;;;;;;;18.21;64.94;100972.25;4941499;29;20098;-80
2022/10/10 07:47:36;;;;;;;19.45;11.65;;;;;;;18.30;62.14;100977.75;4960146;29;20078;-81
2022/10/10 07:50:02;;;;;;;15.82;11.63;;;;;;;18.41;64.19;100977.75;4957493;29;20488;-80
2022/10/10 07:52:29;;;;;;;20.17;12.70;;;;;;;18.51;62.46;100981.91;4940574;29;20067;-79
2022/10/10 07:54:55;;;;;;;17.58;11.48;;;;;;;18.55;60.20;100987.41;4958423;29;20432;-81
2022/10/10 07:57:23;;;;;;;16.45;10.98;;;;;;;18.54;60.60;100977.94;4957618;29;20047;-80
2022/10/10 07:59:49;;;;;;;17.65;11.43;;;;;;;18.56;59.81;100977.41;4957271;29;20407;-80
2022/10/10 08:02:14;;;;;;;22.10;12.38;;;;;;;18.39;60.37;100982.47;4940157;29;20031;-80
2022/10/10 08:04:39;;;;;;;21.58;11.02;;;;;;;18.15;59.75;100962.78;4940199;29;20027;-80
2022/10/10 08:07:05;;;;;;;23.83;11.63;;;;;;;18.14;62.32;100962.00;4957346;29;20022;-79
2022/10/10 08:09:32;;;;;;;22.10;12.70;;;;;;;18.05;61.60;100982.53;4955868;29;20038;-79
2022/10/10 08:11:58;;;;;;;21.70;10.73;;;;;;;17.91;62.13;100972.06;4957307;29;20170;-83
2022/10/10 08:14:23;;;;;;;18.88;10.88;;;;;;;17.74;63.35;100954.72;4957392;29;20519;-80
2022/10/10 08:16:50;;;;;;;22.30;10.85;;;;;;;17.64;63.39;100952.63;4956581;29;20058;-79
2022/10/10 08:19:15;;;;;;;23.98;11.07;;;;;;;17.66;64.79;100950.78;4955520;29;20495;-79
2022/10/10 08:21:40;;;;;;;18.15;10.75;;;;;;;17.71;65.67;100947.13;4956304;28;20051;-80
2022/10/10 08:24:06;;;;;;;17.75;9.55;;;;;;;17.67;64.49;100952.38;4972133;28;20465;-83
2022/10/10 08:26:31;;;;;;;16.20;10.20;;;;;;;17.57;64.63;100932.94;4971748;28;20117;-82
2022/10/10 08:28:57;;;;;;;17.40;10.38;;;;;;;17.62;65.98;100950.28;4971940;28;20031;-82
2022/10/10 08:31:22;;;;;;;18.67;10.52;;;;;;;17.57;67.37;100925.06;4956441;29;20538;-83
2022/10/10 08:33:49;;;;;;;17.38;10.10;;;;;;;17.51;66.22;100946.59;4959918;29;20023;-82
2022/10/10 08:36:22;;;;;;;17.35;9.88;;;;;;;17.36;66.10;100938.16;4957258;29;20459;-83
2022/10/10 08:38:48;;;;;;;47.53;13.55;;;;;;;17.06;67.25;100934.19;4958048;29;20030;-84
2022/10/10 08:41:43;;;;;;;16.75;10.30;;;;;;;16.81;68.26;100938.88;4972436;28;20031;-83
2022/10/10 08:44:15;;;;;;;25.50;12.80;;;;;;;16.58;70.60;100931.47;4971711;28;20023;-81
2022/10/10 08:46:51;;;;;;;23.60;10.15;;;;;;;16.43;72.18;100918.03;4957140;29;20101;-84
2022/10/10 08:49:25;;;;;;;18.08;10.18;;;;;;;16.38;73.18;100920.88;4957473;29;20477;-83
2022/10/10 08:51:57;;;;;;;22.65;10.32;;;;;;;16.34;74.26;100917.47;4976026;28;20031;-82
2022/10/10 08:54:24;;;;;;;21.70;10.25;;;;;;;16.30;74.25;100908.28;4971025;28;20031;-81
2022/10/10 08:56:50;;;;;;;14.75;9.80;;;;;;;16.01;74.99;100890.06;4939809;28;20535;-82
2022/10/10 08:59:25;;;;;;;18.23;9.57;;;;;;;15.95;76.88;100897.91;4972085;28;20105;-83
2022/10/10 09:01:57;;;;;;;45.63;13.50;;;;;;;15.89;79.22;100879.00;4955077;29;20073;-82
2022/10/10 09:04:22;;;;;;;91.30;19.85;;;;;;;15.94;80.55;100889.75;4955090;29;20027;-81
2022/10/10 09:07:17;;;;;;;27.38;11.98;;;;;;;16.00;79.83;100894.25;4957126;29;20027;-84
2022/10/10 09:10:06;;;;;;;25.75;10.25;;;;;;;16.04;80.28;100879.59;4940059;29;20031;-86
2022/10/10 09:13:01;;;;;;;159.20;27.17;;;;;;;16.06;80.42;100874.06;4944066;29;20384;-86
2022/10/10 09:15:34;;;;;;;16.42;8.88;;;;;;;15.97;80.68;100891.59;4941433;29;20051;-85
2022/10/10 09:18:26;;;;;;;14.52;9.38;;;;;;;15.85;81.55;100887.09;4940116;29;20023;-83
2022/10/10 09:20:54;;;;;;;;;;;;;;;15.79;82.24;100887.06;4940331;29;20399;-84
2022/10/10 09:23:35;;;;;;;15.02;9.48;;;;;;;15.75;83.52;100882.84;4973171;28;19910;-78
2022/10/10 09:26:01;;;;;;;;;;;;;;;15.78;83.76;100876.03;4971939;28;20059;-82
2022/10/10 09:28:33;;;;;;;24.92;8.15;;;;;;;15.79;85.07;100872.66;4971468;28;19921;-83
2022/10/10 09:30:59;;;;;;;14.73;8.60;;;;;;;15.79;84.75;100851.69;4971327;28;20396;-81
2022/10/10 09:33:32;;;;;;;13.73;8.85;;;;;;;16.00;86.81;100853.91;4955485;28;20495;-83
2022/10/10 09:36:06;;;;;;;18.80;8.32;;;;;;;16.19;85.49;100850.56;4963987;28;20058;-80
2022/10/10 09:38:34;;;;;;;16.73;9.13;;;;;;;16.36;84.20;100855.06;4958143;28;20106;-83
2022/10/10 09:41:06;;;;;;;159.60;30.50;;;;;;;16.31;83.54;100849.25;4957775;28;20034;-79
2022/10/10 09:43:33;;;;;;;42.97;12.35;;;;;;;16.46;83.60;100855.59;4957833;28;20031;-83
2022/10/10 09:46:00;;;;;;;17.23;9.13;;;;;;;16.47;83.12;100852.22;4975591;28;20034;-84
2022/10/10 09:48:35;;;;;;;18.75;9.02;;;;;;;16.59;83.90;100847.28;4943164;28;20531;-84
2022/10/10 09:51:03;;;;;;;44.70;12.98;;;;;;;16.56;83.90;100842.53;4975572;28;20038;-82
2022/10/10 09:53:29;;;;;;;17.50;9.02;;;;;;;16.53;83.56;100841.50;4942093;28;20045;-84
2022/10/10 09:55:54;;;;;;;60.08;13.25;;;;;;;16.48;83.59;100842.25;4958585;28;20027;-83
2022/10/10 09:58:39;;;;;;;29.00;9.20;;;;;;;16.49;84.27;100840.16;4973534;28;20031;-83
2022/10/10 10:01:16;;;;;;;11.85;8.00;;;;;;;16.48;84.75;100835.69;4958192;28;20093;-83
2022/10/10 10:03:43;;;;;;;17.05;7.75;;;;;;;16.49;85.46;100845.94;4975450;28;20086;-83
2022/10/10 10:06:14;;;;;;;14.20;7.68;;;;;;;16.43;85.20;100845.91;4975391;28;20035;-83
2022/10/10 10:08:41;;;;;;;17.95;8.23;;;;;;;16.33;85.54;100838.00;4976158;28;20027;-84
2022/10/10 10:11:24;;;;;;;16.58;8.07;;;;;;;16.33;86.06;100829.34;4976343;28;20090;-84
2022/10/10 10:13:54;;;;;;;26.13;7.97;;;;;;;16.29;86.34;100831.72;4975061;28;20027;-81
2022/10/10 10:16:29;;;;;;;15.38;7.82;;;;;;;16.22;86.58;100818.56;4959452;28;20495;-85
2022/10/10 10:18:54;;;;;;;14.38;7.40;;;;;;;16.09;87.34;100792.34;4928162;28;20038;-83
2022/10/10 10:21:24;;;;;;;41.35;11.68;;;;;;;16.10;88.40;100800.47;4975674;28;20031;-83
2022/10/10 10:24:01;;;;;;;14.75;7.20;;;;;;;16.17;88.60;100827.19;4958939;28;20034;-80
2022/10/10 10:26:39;;;;;;;14.93;7.93;;;;;;;16.15;89.07;100819.09;4958037;28;20516;-79
2022/10/10 10:29:04;;;;;;;72.10;15.40;;;;;;;16.16;89.43;100817.75;4977491;28;20047;-83
2022/10/10 10:31:46;;;;;;;25.17;8.25;;;;;;;16.18;90.02;100815.16;4958099;28;20125;-83
2022/10/10 10:34:30;;;;;;;22.13;6.30;;;;;;;16.20;89.15;100818.31;4958503;28;20085;-84
2022/10/10 10:37:10;;;;;;;16.55;6.65;;;;;;;16.26;89.40;100809.66;4975527;28;20542;-82
2022/10/10 10:39:43;;;;;;;12.32;6.30;;;;;;;16.25;89.68;100791.59;4975681;28;20039;-81
2022/10/10 10:42:10;;;;;;;23.05;7.82;;;;;;;16.51;89.97;100797.13;4958208;28;20034;-79
2022/10/10 10:44:54;;;;;;;17.75;7.03;;;;;;;16.64;89.43;100788.78;4976091;28;20035;-79
2022/10/10 10:47:28;;;;;;;16.88;6.30;;;;;;;16.74;89.02;100778.56;4961806;28;20105;-80
2022/10/10 10:50:18;;;;;;;53.38;11.48;;;;;;;16.83;87.63;100786.97;4961559;28;20057;-79
2022/10/10 10:53:18;;;;;;;13.95;6.85;;;;;;;16.98;85.93;100780.91;4978808;28;20030;-80
2022/10/10 10:56:02;;;;;;;12.68;5.55;;;;;;;17.05;84.30;100789.03;4978965;28;20031;-77
2022/10/10 10:58:56;;;;;;;18.15;6.03;;;;;;;17.09;84.05;100772.25;4960855;28;20058;-77
2022/10/10 11:01:25;;;;;;;7.95;5.57;;;;;;;17.17;83.96;100772.47;4938101;28;20046;-77
2022/10/10 11:03:59;;;;;;;11.35;6.10;;;;;;;17.32;83.91;100767.19;4960953;28;20034;-80
2022/10/10 11:06:58;;;;;;;16.92;5.78;;;;;;;17.38;83.37;100762.19;4961018;28;20030;-81
2022/10/10 11:09:30;;;;;;;8.88;5.25;;;;;;;17.43;82.30;100758.50;4961947;28;20034;-78
2022/10/10 11:12:08;;;;;;;15.68;5.85;;;;;;;17.45;80.16;100761.66;4978757;28;20042;-82
2022/10/10 11:15:17;;;;;;;11.48;5.78;;;;;;;17.48;81.12;100751.94;4978564;28;20031;-81
2022/10/10 11:17:48;;;;;;;10.57;5.78;;;;;;;17.59;81.35;100754.00;4883940;29;20220;-78
2022/10/10 11:20:24;;;;;;;16.20;5.95;;;;;;;17.68;79.86;100750.81;4968418;28;20498;-79
2022/10/10 11:22:59;;;;;;;12.50;5.25;;;;;;;17.78;80.03;100726.84;4961271;28;20419;-79